createdAt,value
2023-04-26T00:00:01.987Z,96554.31
2023-04-26T00:02:54.597Z,96556.74
2023-04-26T00:05:22.801Z,96553.76
2023-04-26T00:07:50.962Z,96546.05
2023-04-26T00:10:18.915Z,96553.39
2023-04-26T00:12:46.900Z,96547.20
2023-04-26T00:15:15.523Z,96556.45
2023-04-26T00:17:44.124Z,96559.95
2023-04-26T00:20:13.538Z,96555.98
2023-04-26T00:22:41.810Z,96562.73
2023-04-26T00:25:10.363Z,96561.16
2023-04-26T00:27:38.485Z,96563.55
2023-04-26T00:30:07.698Z,96565.27
2023-04-26T00:32:35.899Z,96563.89
2023-04-26T00:35:05.015Z,96569.59
2023-04-26T00:37:33.465Z,96573.80
2023-04-26T00:40:01.868Z,96577.52
2023-04-26T00:42:30.835Z,96571.39
2023-04-26T00:44:58.877Z,96569.93
2023-04-26T00:47:29.918Z,96567.74
2023-04-26T00:49:59.722Z,96568.09
2023-04-26T00:52:28.097Z,96566.17
2023-04-26T00:54:57.021Z,96575.84
2023-04-26T00:57:26.125Z,96573.58
2023-04-26T00:59:54.604Z,96570.60
2023-04-26T01:02:23.017Z,96571.89
2023-04-26T01:04:51.822Z,96566.91
2023-04-26T01:07:20.625Z,96575.60
2023-04-26T01:09:49.255Z,96570.14
2023-04-26T01:12:17.463Z,96579.02
2023-04-26T01:14:46.448Z,96577.54
2023-04-26T01:17:14.694Z,96574.95
2023-04-26T01:19:51.137Z,96579.77
2023-04-26T01:22:19.170Z,96580.58
2023-04-26T01:24:51.888Z,96590.77
2023-04-26T01:27:20.000Z,96588.05
2023-04-26T01:29:48.855Z,96592.54
2023-04-26T01:32:17.032Z,96591.57
2023-04-26T01:34:45.142Z,96594.20
2023-04-26T01:37:13.440Z,96599.67
2023-04-26T01:39:41.467Z,96601.88
2023-04-26T01:42:09.695Z,96599.68
2023-04-26T01:44:37.720Z,96600.45
2023-04-26T01:47:06.337Z,96609.58
2023-04-26T01:49:34.583Z,96606.66
2023-04-26T01:52:05.172Z,96604.80
2023-04-26T01:54:33.358Z,96609.17
2023-04-26T01:57:02.674Z,96609.27
2023-04-26T01:59:31.013Z,96617.11
2023-04-26T02:02:00.339Z,96612.53
2023-04-26T02:04:30.012Z,96621.80
2023-04-26T02:06:58.110Z,96623.42
2023-04-26T02:09:26.175Z,96622.65
2023-04-26T02:11:54.238Z,96626.18
2023-04-26T02:14:22.292Z,96632.90
2023-04-26T02:16:52.025Z,96631.66
2023-04-26T02:19:20.277Z,96630.56
2023-04-26T02:21:59.809Z,96633.79
2023-04-26T02:24:27.992Z,96636.96
2023-04-26T02:26:56.549Z,96637.05
2023-04-26T02:29:42.341Z,96632.66
2023-04-26T02:32:14.487Z,96627.06
2023-04-26T02:34:44.936Z,96631.72
2023-04-26T02:37:15.429Z,96629.14
2023-04-26T02:39:43.529Z,96630.20
2023-04-26T02:42:12.355Z,96631.86
2023-04-26T02:44:40.401Z,96635.65
2023-04-26T02:47:09.643Z,96634.06
2023-04-26T02:49:37.764Z,96640.38
2023-04-26T02:52:06.684Z,96639.63
2023-04-26T02:54:36.522Z,96635.28
2023-04-26T02:57:05.337Z,96638.58
2023-04-26T02:59:33.717Z,96643.23
2023-04-26T03:02:01.939Z,96639.08
2023-04-26T03:04:34.232Z,96646.77
2023-04-26T03:07:05.649Z,96648.71
2023-04-26T03:09:34.682Z,96643.20
2023-04-26T03:12:03.844Z,96647.44
2023-04-26T03:14:33.644Z,96652.95
2023-04-26T03:17:03.018Z,96652.98
2023-04-26T03:19:32.178Z,96659.48
2023-04-26T03:22:00.708Z,96662.55
2023-04-26T03:24:29.083Z,96669.50
2023-04-26T03:26:57.043Z,96677.16
2023-04-26T03:29:25.043Z,96673.34
2023-04-26T03:31:53.118Z,96683.06
2023-04-26T03:34:22.297Z,96678.09
2023-04-26T03:36:51.650Z,96679.71
2023-04-26T03:39:21.120Z,96686.59
2023-04-26T03:41:49.386Z,96690.39
2023-04-26T03:44:18.554Z,96693.90
2023-04-26T03:46:46.625Z,96696.77
2023-04-26T03:49:15.906Z,96701.79
2023-04-26T03:51:44.094Z,96706.13
2023-04-26T03:54:12.319Z,96706.02
2023-04-26T03:56:41.454Z,96711.36
2023-04-26T03:59:10.583Z,96715.55
2023-04-26T04:01:41.501Z,96719.30
2023-04-26T04:04:12.862Z,96716.56
2023-04-26T04:06:42.017Z,96721.88
2023-04-26T04:09:10.311Z,96716.04
2023-04-26T04:11:38.688Z,96716.71
2023-04-26T04:14:07.420Z,96715.88
2023-04-26T04:16:35.490Z,96723.56
2023-04-26T04:19:03.974Z,96723.36
2023-04-26T04:21:32.166Z,96733.23
2023-04-26T04:24:00.745Z,96735.09
2023-04-26T04:26:28.875Z,96729.99
2023-04-26T04:28:57.621Z,96737.34
2023-04-26T04:31:25.702Z,96736.41
2023-04-26T04:33:55.319Z,96739.27
2023-04-26T04:36:24.086Z,96742.48
2023-04-26T04:38:54.561Z,96738.84
2023-04-26T04:41:23.630Z,96754.42
2023-04-26T04:43:53.953Z,96742.31
2023-04-26T04:46:22.286Z,96745.55
2023-04-26T04:48:50.722Z,96755.40
2023-04-26T04:51:19.872Z,96748.64
2023-04-26T04:53:48.093Z,96753.91
2023-04-26T04:56:18.467Z,96750.25
2023-04-26T04:58:48.131Z,96758.64
2023-04-26T05:01:18.596Z,96760.66
2023-04-26T05:03:52.290Z,96762.30
2023-04-26T05:06:21.044Z,96758.75
2023-04-26T05:08:49.339Z,96757.48
2023-04-26T05:11:17.906Z,96757.69
2023-04-26T05:13:51.570Z,96755.84
2023-04-26T05:16:21.790Z,96754.61
2023-04-26T05:18:49.955Z,96761.68
2023-04-26T05:21:18.080Z,96761.52
2023-04-26T05:23:47.063Z,96765.26
2023-04-26T05:26:18.288Z,96766.73
2023-04-26T05:28:59.825Z,96772.48
2023-04-26T05:31:46.807Z,96765.53
2023-04-26T05:34:25.335Z,96765.86
2023-04-26T05:37:00.537Z,96769.56
2023-04-26T05:39:28.773Z,96770.70
2023-04-26T05:41:57.590Z,96771.96
2023-04-26T05:44:26.099Z,96774.31
2023-04-26T05:46:54.301Z,96776.77
2023-04-26T05:49:22.706Z,96780.02
2023-04-26T05:51:51.390Z,96781.61
2023-04-26T05:54:21.237Z,96784.04
2023-04-26T05:56:49.517Z,96790.61
2023-04-26T05:59:18.786Z,96789.11
2023-04-26T06:01:47.017Z,96791.39
2023-04-26T06:04:15.726Z,96798.63
2023-04-26T06:07:01.405Z,96807.70
2023-04-26T06:09:32.415Z,96812.27
2023-04-26T06:12:02.345Z,96807.23
2023-04-26T06:14:33.767Z,96816.82
2023-04-26T06:17:05.642Z,96814.59
2023-04-26T06:19:34.025Z,96822.65
2023-04-26T06:22:02.313Z,96821.67
2023-04-26T06:24:30.741Z,96816.96
2023-04-26T06:26:59.629Z,96821.23
2023-04-26T06:29:32.646Z,96831.16
2023-04-26T06:32:02.115Z,96837.79
2023-04-26T06:34:31.810Z,96822.92
2023-04-26T06:37:00.421Z,96830.76
2023-04-26T06:39:31.920Z,96834.45
2023-04-26T06:42:01.541Z,96838.58
2023-04-26T06:44:42.605Z,96838.52
2023-04-26T06:47:12.780Z,96839.84
2023-04-26T06:49:41.273Z,96835.64
2023-04-26T06:52:12.918Z,96844.31
2023-04-26T06:54:53.520Z,96848.84
2023-04-26T06:57:25.087Z,96842.86
2023-04-26T06:59:53.545Z,96845.30
2023-04-26T07:02:23.820Z,96849.08
2023-04-26T07:04:53.001Z,96856.89
2023-04-26T07:07:22.098Z,96856.33
2023-04-26T07:09:50.320Z,96858.27
2023-04-26T07:12:18.482Z,96867.93
2023-04-26T07:14:47.094Z,96873.36
2023-04-26T07:17:17.086Z,96873.92
2023-04-26T07:19:45.360Z,96875.99
2023-04-26T07:22:13.456Z,96882.42
2023-04-26T07:24:41.664Z,96884.17
2023-04-26T07:27:10.984Z,96884.87
2023-04-26T07:29:47.754Z,96887.73
2023-04-26T07:32:21.338Z,96886.10
2023-04-26T07:34:51.798Z,96887.27
2023-04-26T07:37:20.352Z,96897.16
2023-04-26T07:39:49.065Z,96905.83
2023-04-26T07:42:18.380Z,96898.05
2023-04-26T07:44:48.520Z,96897.09
2023-04-26T07:47:17.011Z,96899.36
2023-04-26T07:49:47.517Z,96895.46
2023-04-26T07:52:29.116Z,96904.02
2023-04-26T07:55:18.486Z,96904.99
2023-04-26T07:57:49.231Z,96914.99
2023-04-26T08:00:19.061Z,96918.36
2023-04-26T08:02:50.329Z,96931.45
2023-04-26T08:05:18.921Z,96932.67
2023-04-26T08:07:47.528Z,96930.84
2023-04-26T08:10:15.959Z,96928.89
2023-04-26T08:12:44.146Z,96937.73
2023-04-26T08:15:13.057Z,96944.30
2023-04-26T08:17:41.830Z,96949.13
2023-04-26T08:20:10.542Z,96949.79
2023-04-26T08:22:38.730Z,96960.25
2023-04-26T08:25:07.017Z,96952.09
2023-04-26T08:27:36.954Z,96952.43
2023-04-26T08:30:05.949Z,96960.47
2023-04-26T08:32:35.619Z,96968.04
2023-04-26T08:35:05.697Z,96966.17
2023-04-26T08:37:34.173Z,96974.23
2023-04-26T08:40:03.959Z,96962.77
2023-04-26T08:42:32.334Z,96964.23
2023-04-26T08:45:03.602Z,96961.58
2023-04-26T08:47:46.476Z,96967.77
2023-04-26T08:50:16.396Z,96972.74
2023-04-26T08:52:47.630Z,96969.88
2023-04-26T08:55:17.199Z,96976.27
2023-04-26T08:57:50.404Z,96972.02
2023-04-26T09:00:20.129Z,96977.41
2023-04-26T09:02:53.384Z,96973.35
2023-04-26T09:05:24.499Z,96978.17
2023-04-26T09:08:03.900Z,96971.48
2023-04-26T09:10:34.326Z,96980.88
2023-04-26T09:13:04.766Z,96976.84
2023-04-26T09:15:32.956Z,96970.77
2023-04-26T09:18:18.552Z,96988.91
2023-04-26T09:20:46.904Z,96986.58
2023-04-26T09:23:17.295Z,96998.29
2023-04-26T09:25:45.483Z,96974.30
2023-04-26T09:28:22.572Z,96985.56
2023-04-26T09:30:51.673Z,96984.80
2023-04-26T09:33:20.084Z,96988.54
2023-04-26T09:35:48.474Z,96996.35
2023-04-26T09:38:18.187Z,96998.85
2023-04-26T09:40:49.434Z,96997.91
2023-04-26T09:43:25.142Z,97010.86
2023-04-26T09:46:00.919Z,96995.35
2023-04-26T09:48:38.312Z,97010.79
2023-04-26T09:51:23.133Z,96998.35
2023-04-26T09:53:51.794Z,96987.87
2023-04-26T09:56:21.175Z,96989.48
2023-04-26T09:58:59.223Z,96989.52
2023-04-26T10:01:38.965Z,96979.60
2023-04-26T10:04:07.886Z,96990.31
2023-04-26T10:06:38.134Z,97018.91
2023-04-26T10:09:09.543Z,97001.50
2023-04-26T10:11:39.405Z,96985.06
2023-04-26T10:14:09.814Z,96997.45
2023-04-26T10:16:38.792Z,97002.54
2023-04-26T10:19:07.752Z,97013.59
2023-04-26T10:21:39.266Z,96996.20
2023-04-26T10:24:08.573Z,97010.22
2023-04-26T10:26:55.100Z,97016.21
2023-04-26T10:29:26.391Z,97011.95
2023-04-26T10:32:05.888Z,97010.11
2023-04-26T10:34:37.281Z,97001.08
2023-04-26T10:37:18.603Z,96987.92
2023-04-26T10:39:47.266Z,97004.90
2023-04-26T10:42:41.111Z,96992.27
2023-04-26T10:45:30.528Z,96989.38
2023-04-26T10:48:19.375Z,96994.04
2023-04-26T10:50:59.914Z,96990.87
2023-04-26T10:53:32.482Z,97005.92
2023-04-26T10:56:00.617Z,97006.50
2023-04-26T10:58:30.635Z,97002.56
2023-04-26T11:01:12.154Z,96996.51
2023-04-26T11:03:59.326Z,96999.75
2023-04-26T11:06:53.132Z,97000.27
2023-04-26T11:09:49.648Z,97006.69
2023-04-26T11:12:18.193Z,97020.10
2023-04-26T11:14:48.252Z,97006.45
2023-04-26T11:17:16.412Z,97012.33
2023-04-26T11:19:47.744Z,97014.30
2023-04-26T11:22:20.564Z,97003.45
2023-04-26T11:24:50.047Z,96999.61
2023-04-26T11:27:18.266Z,97004.54
2023-04-26T11:29:47.729Z,97000.56
2023-04-26T11:32:16.768Z,97001.14
2023-04-26T11:34:51.005Z,97012.26
2023-04-26T11:37:20.708Z,97002.39
2023-04-26T11:39:51.580Z,97012.18
2023-04-26T11:42:26.066Z,97004.33
2023-04-26T11:44:58.078Z,97016.53
2023-04-26T11:47:31.090Z,97015.16
2023-04-26T11:50:11.300Z,97017.52
2023-04-26T11:52:39.914Z,97010.36
2023-04-26T11:55:10.484Z,97012.27
2023-04-26T11:57:38.986Z,97010.02
2023-04-26T12:00:13.424Z,97016.89
2023-04-26T12:02:48.745Z,97013.27
2023-04-26T12:05:25.664Z,97012.39
2023-04-26T12:07:56.942Z,97010.17
2023-04-26T12:10:31.146Z,97010.01
2023-04-26T12:13:00.337Z,97016.61
2023-04-26T12:15:33.281Z,97009.14
2023-04-26T12:18:09.118Z,97009.14
2023-04-26T12:20:41.454Z,97010.97
2023-04-26T12:23:18.971Z,97006.48
2023-04-26T12:26:00.649Z,97014.00
2023-04-26T12:28:28.946Z,97013.83
2023-04-26T12:30:59.619Z,97014.85
2023-04-26T12:33:28.356Z,97019.59
2023-04-26T12:35:57.978Z,97011.67
2023-04-26T12:38:26.651Z,97002.50
2023-04-26T12:40:55.022Z,97006.22
2023-04-26T12:43:26.113Z,97020.27
2023-04-26T12:45:54.289Z,97012.34
2023-04-26T12:48:22.656Z,97013.42
2023-04-26T12:50:51.556Z,97011.65
2023-04-26T12:53:20.171Z,97011.85
2023-04-26T12:55:51.156Z,97014.42
2023-04-26T12:58:21.794Z,97014.66
2023-04-26T13:00:51.519Z,97008.02
2023-04-26T13:03:20.178Z,97017.08
2023-04-26T13:05:51.924Z,97024.64
2023-04-26T13:08:20.565Z,97024.10
2023-04-26T13:10:50.304Z,97019.52
2023-04-26T13:13:19.322Z,97024.22
2023-04-26T13:15:50.336Z,97020.12
2023-04-26T13:18:22.129Z,97025.48
2023-04-26T13:20:51.566Z,97028.66
2023-04-26T13:23:19.927Z,97030.77
2023-04-26T13:25:48.789Z,97032.02
2023-04-26T13:28:17.909Z,97029.05
2023-04-26T13:30:46.118Z,97038.45
2023-04-26T13:33:19.956Z,97037.30
2023-04-26T13:35:48.280Z,97043.16
2023-04-26T13:38:19.400Z,97048.14
2023-04-26T13:40:47.774Z,97050.66
2023-04-26T13:43:18.817Z,97048.19
2023-04-26T13:45:48.003Z,97047.37
2023-04-26T13:48:16.648Z,97043.41
2023-04-26T13:50:45.223Z,97044.63
2023-04-26T13:53:14.361Z,97043.21
2023-04-26T13:55:42.858Z,97047.40
2023-04-26T13:58:11.144Z,97044.54
2023-04-26T14:00:40.225Z,97052.33
2023-04-26T14:03:09.284Z,97053.64
2023-04-26T14:05:37.548Z,97055.96
2023-04-26T14:08:06.209Z,97053.37
2023-04-26T14:10:34.479Z,97053.14
2023-04-26T14:13:03.287Z,97047.42
2023-04-26T14:15:31.606Z,97046.38
2023-04-26T14:18:00.117Z,97056.20
2023-04-26T14:20:28.626Z,97059.20
2023-04-26T14:22:56.900Z,97068.13
2023-04-26T14:25:26.125Z,97073.36
2023-04-26T14:27:55.655Z,97079.90
2023-04-26T14:30:24.742Z,97085.62
2023-04-26T14:32:55.805Z,97083.51
2023-04-26T14:35:24.736Z,97080.85
2023-04-26T14:37:53.072Z,97083.51
2023-04-26T14:40:21.697Z,97082.13
2023-04-26T14:42:50.676Z,97083.80
2023-04-26T14:45:19.122Z,97089.16
2023-04-26T14:47:47.537Z,97090.63
2023-04-26T14:50:16.145Z,97100.59
2023-04-26T14:52:44.686Z,97105.32
2023-04-26T14:55:20.262Z,97107.91
2023-04-26T14:57:50.400Z,97112.07
2023-04-26T15:00:20.344Z,97103.81
2023-04-26T15:02:48.953Z,97104.35
2023-04-26T15:05:21.319Z,97105.41
2023-04-26T15:07:49.881Z,97102.16
2023-04-26T15:10:31.279Z,97113.17
2023-04-26T15:13:00.425Z,97120.78
2023-04-26T15:16:02.526Z,97130.59
2023-04-26T15:18:31.742Z,97131.95
2023-04-26T15:21:00.441Z,97137.30
2023-04-26T15:23:28.807Z,97133.35
2023-04-26T15:26:02.148Z,97138.13
2023-04-26T15:28:30.517Z,97138.55
2023-04-26T15:31:07.777Z,97135.22
2023-04-26T15:33:36.616Z,97132.25
2023-04-26T15:36:05.518Z,97144.52
2023-04-26T15:38:34.998Z,97140.52
2023-04-26T15:41:03.309Z,97140.95
2023-04-26T15:43:31.660Z,97140.81
2023-04-26T15:46:00.097Z,97131.85
2023-04-26T15:48:28.346Z,97129.17
2023-04-26T15:50:58.058Z,97138.98
2023-04-26T15:53:27.174Z,97143.52
2023-04-26T15:55:56.026Z,97142.83
2023-04-26T15:58:24.766Z,97132.59
2023-04-26T16:00:53.050Z,97133.59
2023-04-26T16:03:22.017Z,97149.05
2023-04-26T16:05:50.355Z,97148.50
2023-04-26T16:08:33.210Z,97147.83
2023-04-26T16:11:08.592Z,97153.69
2023-04-26T16:13:37.333Z,97164.96
2023-04-26T16:16:11.711Z,97162.40
2023-04-26T16:18:40.643Z,97154.02
2023-04-26T16:21:13.689Z,97154.52
2023-04-26T16:23:42.159Z,97163.91
2023-04-26T16:26:10.286Z,97163.73
2023-04-26T16:28:38.407Z,97165.84
2023-04-26T16:31:06.686Z,97166.80
2023-04-26T16:33:34.885Z,97166.97
2023-04-26T16:36:03.077Z,97175.33
2023-04-26T16:38:31.269Z,97172.39
2023-04-26T16:41:01.768Z,97179.42
2023-04-26T16:43:32.137Z,97181.23
2023-04-26T16:46:08.979Z,97184.36
2023-04-26T16:48:39.242Z,97184.58
2023-04-26T16:51:08.085Z,97190.11
2023-04-26T16:53:37.762Z,97193.95
2023-04-26T16:56:06.570Z,97198.99
2023-04-26T16:58:34.721Z,97201.98
2023-04-26T17:01:03.187Z,97202.95
2023-04-26T17:03:31.765Z,97209.08
2023-04-26T17:06:01.738Z,97210.04
2023-04-26T17:08:30.542Z,97211.47
2023-04-26T17:10:58.796Z,97214.36
2023-04-26T17:13:30.408Z,97215.78
2023-04-26T17:15:58.654Z,97219.06
2023-04-26T17:18:26.906Z,97221.61
2023-04-26T17:20:56.451Z,97226.39
2023-04-26T17:23:24.821Z,97226.99
2023-04-26T17:25:54.980Z,97230.48
2023-04-26T17:28:23.932Z,97237.11
2023-04-26T17:30:52.378Z,97244.33
2023-04-26T17:33:20.752Z,97245.84
2023-04-26T17:35:49.561Z,97253.27
2023-04-26T17:38:17.871Z,97251.75
2023-04-26T17:40:46.709Z,97259.48
2023-04-26T17:43:16.504Z,97261.92
2023-04-26T17:45:44.919Z,97269.88
2023-04-26T17:48:13.637Z,97267.93
2023-04-26T17:50:42.018Z,97271.94
2023-04-26T17:53:10.316Z,97276.42
2023-04-26T17:55:38.429Z,97279.48
2023-04-26T17:58:07.983Z,97278.15
2023-04-26T18:00:36.355Z,97281.55
2023-04-26T18:03:07.147Z,97282.91
2023-04-26T18:05:36.085Z,97285.02
2023-04-26T18:08:07.140Z,97285.70
2023-04-26T18:10:35.626Z,97287.33
2023-04-26T18:13:03.762Z,97281.82
2023-04-26T18:15:32.509Z,97287.60
2023-04-26T18:18:03.416Z,97289.63
2023-04-26T18:20:31.652Z,97293.26
2023-04-26T18:22:59.748Z,97295.80
2023-04-26T18:25:27.797Z,97299.63
2023-04-26T18:27:57.086Z,97306.52
2023-04-26T18:30:25.156Z,97310.58
2023-04-26T18:32:53.447Z,97321.80
2023-04-26T18:35:22.028Z,97327.00
2023-04-26T18:37:50.783Z,97323.77
2023-04-26T18:40:18.848Z,97330.19
2023-04-26T18:42:47.159Z,97335.27
2023-04-26T18:45:15.668Z,97334.20
2023-04-26T18:47:44.640Z,97335.67
2023-04-26T18:50:13.225Z,97333.67
2023-04-26T18:52:41.415Z,97336.15
2023-04-26T18:55:10.231Z,97335.75
2023-04-26T18:57:41.540Z,97336.00
2023-04-26T19:00:11.115Z,97343.65
2023-04-26T19:02:41.329Z,97348.27
2023-04-26T19:05:10.921Z,97346.80
2023-04-26T19:07:41.293Z,97351.45
2023-04-26T19:10:10.957Z,97352.95
2023-04-26T19:12:39.766Z,97357.12
2023-04-26T19:15:09.365Z,97359.52
2023-04-26T19:17:37.965Z,97364.25
2023-04-26T19:20:10.331Z,97361.02
2023-04-26T19:22:41.934Z,97365.80
2023-04-26T19:25:10.310Z,97367.42
2023-04-26T19:27:41.320Z,97370.98
2023-04-26T19:30:10.001Z,97368.94
2023-04-26T19:32:38.101Z,97373.33
2023-04-26T19:35:07.464Z,97370.82
2023-04-26T19:37:36.117Z,97369.15
2023-04-26T19:40:07.870Z,97366.30
2023-04-26T19:42:36.088Z,97365.46
2023-04-26T19:45:06.460Z,97361.54
2023-04-26T19:47:34.903Z,97366.40
2023-04-26T19:50:04.106Z,97370.30
2023-04-26T19:52:32.489Z,97372.13
2023-04-26T19:55:01.617Z,97374.38
2023-04-26T19:57:31.205Z,97378.80
2023-04-26T20:00:01.353Z,97379.00
2023-04-26T20:02:30.697Z,97379.64
2023-04-26T20:04:58.810Z,97383.66
2023-04-26T20:07:27.734Z,97383.24
2023-04-26T20:09:56.102Z,97386.40
2023-04-26T20:12:24.183Z,97389.80
2023-04-26T20:14:52.385Z,97389.94
2023-04-26T20:17:20.439Z,97391.64
2023-04-26T20:19:49.184Z,97391.13
2023-04-26T20:22:17.277Z,97392.74
2023-04-26T20:24:45.551Z,97392.09
2023-04-26T20:27:13.758Z,97394.30
2023-04-26T20:29:41.806Z,97397.29
2023-04-26T20:32:09.852Z,97398.73
2023-04-26T20:34:37.997Z,97394.23
2023-04-26T20:37:06.260Z,97396.44
2023-04-26T20:39:35.542Z,97400.71
2023-04-26T20:42:03.858Z,97405.07
2023-04-26T20:44:32.393Z,97407.18
2023-04-26T20:47:01.036Z,97411.17
2023-04-26T20:49:30.666Z,97410.14
2023-04-26T20:51:58.780Z,97408.05
2023-04-26T20:54:30.095Z,97410.81
2023-04-26T20:56:58.690Z,97413.08
2023-04-26T20:59:26.890Z,97416.77
2023-04-26T21:01:57.497Z,97422.13
2023-04-26T21:04:26.526Z,97425.35
2023-04-26T21:06:54.777Z,97434.45
2023-04-26T21:09:23.133Z,97433.14
2023-04-26T21:11:54.365Z,97432.86
2023-04-26T21:14:22.343Z,97435.82
2023-04-26T21:16:50.504Z,97435.90
2023-04-26T21:19:18.827Z,97437.73
2023-04-26T21:21:48.486Z,97440.38
2023-04-26T21:24:16.780Z,97442.46
2023-04-26T21:26:45.446Z,97444.30
2023-04-26T21:29:13.636Z,97446.88
2023-04-26T21:31:41.935Z,97446.46
2023-04-26T21:34:10.001Z,97444.05
2023-04-26T21:36:38.047Z,97446.73
2023-04-26T21:39:06.619Z,97446.58
2023-04-26T21:41:34.720Z,97451.84
2023-04-26T21:44:04.120Z,97454.49
2023-04-26T21:46:32.607Z,97456.42
2023-04-26T21:49:01.420Z,97459.92
2023-04-26T21:51:29.551Z,97462.05
2023-04-26T21:53:58.314Z,97460.27
2023-04-26T21:56:26.784Z,97462.02
2023-04-26T21:58:55.313Z,97460.25
2023-04-26T22:01:23.382Z,97462.94
2023-04-26T22:03:51.864Z,97464.45
2023-04-26T22:06:20.468Z,97468.63
2023-04-26T22:08:48.695Z,97471.15
2023-04-26T22:11:16.790Z,97474.89
2023-04-26T22:13:44.955Z,97482.20
2023-04-26T22:16:12.978Z,97481.84
2023-04-26T22:18:41.448Z,97483.77
2023-04-26T22:21:09.510Z,97481.34
2023-04-26T22:23:38.780Z,97480.73
2023-04-26T22:26:07.112Z,97483.69
2023-04-26T22:28:35.358Z,97483.91
2023-04-26T22:31:03.734Z,97476.53
2023-04-26T22:33:31.916Z,97478.09
2023-04-26T22:36:00.428Z,97479.00
2023-04-26T22:38:28.459Z,97476.61
2023-04-26T22:40:56.646Z,97481.96
2023-04-26T22:43:24.786Z,97482.37
2023-04-26T22:45:52.942Z,97483.77
2023-04-26T22:48:21.725Z,97480.46
2023-04-26T22:50:50.556Z,97483.27
2023-04-26T22:53:18.584Z,97483.11
2023-04-26T22:55:46.687Z,97479.15
2023-04-26T22:58:14.743Z,97477.73
2023-04-26T23:00:43.066Z,97478.46
2023-04-26T23:03:11.571Z,97478.08
2023-04-26T23:05:40.087Z,97477.29
2023-04-26T23:08:08.346Z,97476.73
2023-04-26T23:10:36.523Z,97479.04
2023-04-26T23:13:05.059Z,97477.63
2023-04-26T23:15:34.098Z,97473.55
2023-04-26T23:18:03.222Z,97476.95
2023-04-26T23:20:31.264Z,97477.80
2023-04-26T23:22:59.257Z,97478.80
2023-04-26T23:25:27.373Z,97477.13
2023-04-26T23:27:55.498Z,97477.51
2023-04-26T23:30:24.281Z,97479.92
2023-04-26T23:32:52.457Z,97482.98
2023-04-26T23:35:20.632Z,97479.23
2023-04-26T23:37:52.419Z,97479.78
2023-04-26T23:40:20.793Z,97479.52
2023-04-26T23:42:49.056Z,97479.20
2023-04-26T23:45:19.309Z,97480.34
2023-04-26T23:47:47.423Z,97477.69
2023-04-26T23:50:15.710Z,97480.34
2023-04-26T23:52:43.754Z,97481.45
2023-04-26T23:55:12.096Z,97482.16
2023-04-26T23:57:40.751Z,97480.52
